createdAt,value
2023-03-29T00:00:38.298Z,67.1931
2023-03-29T00:02:41.472Z,68.6960
2023-03-29T00:03:43.047Z,70.7015
2023-03-29T00:04:43.004Z,71.1374
2023-03-29T00:05:43.039Z,72.7664
2023-03-29T00:06:43.049Z,73.9259
2023-03-29T00:07:44.268Z,74.8885
2023-03-29T00:08:44.394Z,74.8624
2023-03-29T00:09:45.642Z,75.2757
2023-03-29T00:10:45.732Z,75.3665
2023-03-29T00:11:46.953Z,74.9420
2023-03-29T00:12:48.283Z,76.4030
2023-03-29T00:13:49.526Z,73.7692
2023-03-29T00:14:50.929Z,71.4494
2023-03-29T00:15:52.111Z,72.9294
2023-03-29T00:16:53.690Z,72.5396
2023-03-29T00:17:55.082Z,70.5135
2023-03-29T00:18:55.172Z,71.7304
2023-03-29T00:19:56.427Z,71.7334
2023-03-29T00:20:57.813Z,70.7667
2023-03-29T00:21:59.037Z,70.6126
2023-03-29T00:22:59.476Z,70.4218
2023-03-29T00:24:00.674Z,70.2035
2023-03-29T00:25:00.714Z,70.2305
2023-03-29T00:26:02.031Z,69.3963
2023-03-29T00:27:03.565Z,69.4552
2023-03-29T00:28:04.854Z,71.3889
2023-03-29T00:29:06.219Z,72.3524
2023-03-29T00:30:07.429Z,68.7891
2023-03-29T00:31:08.898Z,70.3993
2023-03-29T00:32:10.207Z,67.5875
2023-03-29T00:33:10.357Z,66.9713
2023-03-29T00:34:11.622Z,64.0501
2023-03-29T00:35:11.631Z,61.4319
2023-03-29T00:36:12.907Z,65.2136
2023-03-29T00:37:12.974Z,66.9372
2023-03-29T00:38:14.181Z,65.7448
2023-03-29T00:39:15.492Z,66.0922
2023-03-29T00:40:16.803Z,63.5610
2023-03-29T00:41:17.186Z,66.4446
2023-03-29T00:42:18.386Z,66.6556
2023-03-29T00:43:18.479Z,65.5085
2023-03-29T00:44:19.791Z,61.8210
2023-03-29T00:45:21.228Z,62.5385
2023-03-29T00:46:22.659Z,61.3527
2023-03-29T00:47:22.957Z,62.9178
2023-03-29T00:48:24.369Z,64.3024
2023-03-29T00:49:24.369Z,63.9740
2023-03-29T00:50:25.571Z,64.0157
2023-03-29T00:51:26.956Z,65.3376
2023-03-29T00:52:28.231Z,65.7501
2023-03-29T00:53:29.679Z,66.8671
2023-03-29T00:54:30.959Z,66.8080
2023-03-29T00:55:32.392Z,64.6945
2023-03-29T00:56:32.488Z,64.7655
2023-03-29T00:57:34.012Z,62.7399
2023-03-29T00:58:35.246Z,62.3336
2023-03-29T00:59:36.724Z,61.7584
2023-03-29T01:00:38.048Z,64.3519
2023-03-29T01:01:38.179Z,64.2703
2023-03-29T01:02:38.456Z,61.7055
2023-03-29T01:03:40.163Z,59.8248
2023-03-29T01:04:41.444Z,60.2094
2023-03-29T01:05:42.750Z,60.3460
2023-03-29T01:06:43.864Z,60.2709
2023-03-29T01:07:44.524Z,60.9178
2023-03-29T01:08:45.745Z,62.7100
2023-03-29T01:09:45.852Z,61.3842
2023-03-29T01:10:47.126Z,61.3400
2023-03-29T01:11:48.483Z,61.8935
2023-03-29T01:12:49.715Z,62.3794
2023-03-29T01:13:51.205Z,62.9434
2023-03-29T01:14:52.484Z,63.5881
2023-03-29T01:15:53.932Z,63.6139
2023-03-29T01:16:55.338Z,63.3617
2023-03-29T01:17:55.683Z,64.8727
2023-03-29T01:18:55.798Z,63.6682
2023-03-29T01:29:06.493Z,61.6986
2023-03-29T01:30:07.869Z,62.5075
2023-03-29T01:31:09.164Z,62.9401
2023-03-29T01:32:09.230Z,60.9840
2023-03-29T01:33:10.549Z,60.3919
2023-03-29T01:34:11.913Z,59.3825
2023-03-29T01:35:11.990Z,60.5955
2023-03-29T01:36:13.538Z,61.9028
2023-03-29T01:37:14.756Z,62.7335
2023-03-29T01:38:16.127Z,61.6313
2023-03-29T01:39:17.396Z,63.2668
2023-03-29T01:40:18.736Z,62.8476
2023-03-29T01:41:20.038Z,60.0467
2023-03-29T01:42:21.529Z,60.2208
2023-03-29T01:43:23.553Z,61.3954
2023-03-29T01:44:23.385Z,63.2137
2023-03-29T01:45:24.715Z,62.3305
2023-03-29T01:46:24.817Z,62.4745
2023-03-29T01:47:24.892Z,62.2941
2023-03-29T01:48:26.106Z,62.1651
2023-03-29T01:49:27.413Z,62.1448
2023-03-29T01:50:28.627Z,62.2689
2023-03-29T01:51:29.950Z,63.9749
2023-03-29T01:52:31.202Z,63.7133
2023-03-29T01:53:31.245Z,64.0123
2023-03-29T01:54:32.612Z,64.3384
2023-03-29T02:04:41.706Z,66.1831
2023-03-29T02:05:41.763Z,64.1739
2023-03-29T02:06:42.986Z,63.8362
2023-03-29T02:07:44.301Z,65.3329
2023-03-29T02:08:45.526Z,64.2467
2023-03-29T02:09:45.589Z,62.3639
2023-03-29T02:10:45.714Z,62.7704
2023-03-29T02:11:47.163Z,63.5502
2023-03-29T02:12:48.534Z,65.4420
2023-03-29T02:13:48.471Z,63.3437
2023-03-29T02:14:48.550Z,62.6591
2023-03-29T02:15:50.041Z,63.5430
2023-03-29T02:16:50.082Z,66.1699
2023-03-29T02:17:51.428Z,67.3186
2023-03-29T02:18:51.702Z,65.7289
2023-03-29T02:19:53.069Z,63.8763
2023-03-29T02:20:53.159Z,65.7401
2023-03-29T02:21:53.144Z,67.9683
2023-03-29T02:22:54.438Z,69.0771
2023-03-29T02:28:59.466Z,64.6192
2023-03-29T02:29:59.500Z,66.8140
2023-03-29T02:31:01.045Z,65.0932
2023-03-29T02:32:01.704Z,65.5684
2023-03-29T02:33:01.777Z,64.3158
2023-03-29T02:34:01.870Z,64.4961
2023-03-29T02:35:01.908Z,63.7671
2023-03-29T02:36:02.023Z,64.9125
2023-03-29T02:37:02.130Z,64.1431
2023-03-29T02:38:03.530Z,65.8666
2023-03-29T02:39:03.684Z,65.4653
2023-03-29T02:40:04.986Z,63.9547
2023-03-29T02:41:06.493Z,63.3827
2023-03-29T02:42:07.785Z,62.5356
2023-03-29T02:44:09.035Z,66.8592
2023-03-29T02:45:10.376Z,70.0707
2023-03-29T02:46:10.472Z,70.6778
2023-03-29T02:47:10.558Z,67.0353
2023-03-29T02:48:10.669Z,64.3616
2023-03-29T02:49:12.038Z,65.9358
2023-03-29T02:50:13.702Z,67.4016
2023-03-29T02:51:15.916Z,64.6025
2023-03-29T02:52:15.922Z,66.2103
2023-03-29T02:53:15.955Z,64.6608
2023-03-29T02:54:17.338Z,64.2514
2023-03-29T02:55:17.423Z,62.4449
2023-03-29T02:56:18.638Z,66.5340
2023-03-29T02:57:20.221Z,69.3906
2023-03-29T02:58:20.236Z,69.1407
2023-03-29T02:59:21.580Z,68.6795
2023-03-29T03:00:21.672Z,69.8657
2023-03-29T03:01:23.092Z,67.6231
2023-03-29T03:02:23.335Z,70.3478
2023-03-29T03:03:23.954Z,70.3207
2023-03-29T03:04:24.308Z,67.4403
2023-03-29T03:05:25.614Z,65.6965
2023-03-29T03:06:25.752Z,66.7553
2023-03-29T03:07:27.024Z,64.8116
2023-03-29T03:09:29.787Z,63.2596
2023-03-29T03:11:31.124Z,65.8210
2023-03-29T03:12:31.477Z,65.8035
2023-03-29T03:13:32.753Z,64.2837
2023-03-29T03:14:33.101Z,65.2029
2023-03-29T03:15:34.401Z,65.3444
2023-03-29T03:16:34.865Z,65.3326
2023-03-29T03:17:34.856Z,67.9609
2023-03-29T03:18:36.149Z,67.4773
2023-03-29T03:19:36.286Z,65.3459
2023-03-29T03:20:37.553Z,66.7867
2023-03-29T03:21:38.538Z,64.4898
2023-03-29T03:22:39.867Z,66.7122
2023-03-29T03:23:39.981Z,66.9552
2023-03-29T03:27:42.479Z,66.7421
2023-03-29T03:28:42.539Z,66.6180
2023-03-29T03:29:43.922Z,66.7488
2023-03-29T03:30:44.086Z,65.3725
2023-03-29T03:31:44.191Z,60.1378
2023-03-29T03:32:44.304Z,60.5360
2023-03-29T03:33:45.638Z,64.1218
2023-03-29T03:34:47.182Z,64.2357
2023-03-29T03:35:48.512Z,64.4393
2023-03-29T03:36:48.633Z,63.9523
2023-03-29T03:37:49.942Z,66.2398
2023-03-29T03:38:51.442Z,68.1036
2023-03-29T03:39:52.731Z,66.0005
2023-03-29T03:41:55.400Z,63.9601
2023-03-29T03:42:55.759Z,64.7873
2023-03-29T03:43:56.277Z,66.2731
2023-03-29T03:44:56.324Z,66.0292
2023-03-29T03:45:56.586Z,64.7844
2023-03-29T03:46:57.090Z,65.8827
2023-03-29T03:47:57.200Z,64.8346
2023-03-29T03:48:57.383Z,68.3134
2023-03-29T03:49:57.417Z,68.7287
2023-03-29T03:50:57.441Z,69.2465
2023-03-29T03:51:58.788Z,68.0872
2023-03-29T03:52:58.928Z,68.0984
2023-03-29T03:54:00.250Z,66.8193
2023-03-29T03:55:01.789Z,69.3700
2023-03-29T03:56:03.148Z,69.6721
2023-03-29T03:57:04.825Z,67.4157
2023-03-29T03:58:06.109Z,67.0886
2023-03-29T03:59:06.341Z,68.2155
2023-03-29T04:00:07.692Z,69.2925
2023-03-29T04:01:07.680Z,65.8237
2023-03-29T04:02:07.824Z,64.7785
2023-03-29T04:03:08.093Z,64.8372
2023-03-29T04:04:09.167Z,65.4660
2023-03-29T04:05:09.459Z,67.2542
2023-03-29T04:06:09.495Z,68.8111
2023-03-29T04:07:10.744Z,65.8728
2023-03-29T04:08:12.158Z,64.1090
2023-03-29T04:09:13.480Z,67.5654
2023-03-29T04:10:13.640Z,68.8636
2023-03-29T04:11:14.909Z,69.4971
2023-03-29T04:12:15.031Z,69.5546
2023-03-29T04:13:16.337Z,63.9447
2023-03-29T04:14:17.840Z,62.6906
2023-03-29T04:15:17.855Z,64.8802
2023-03-29T04:16:18.067Z,65.4469
2023-03-29T04:17:18.189Z,66.5484
2023-03-29T04:18:18.770Z,63.1473
2023-03-29T04:19:20.085Z,65.0118
2023-03-29T04:20:20.389Z,64.9264
2023-03-29T04:21:21.659Z,64.5203
2023-03-29T04:22:21.915Z,65.4358
2023-03-29T04:34:35.111Z,62.9246
2023-03-29T04:35:35.523Z,61.2664
2023-03-29T04:36:36.744Z,62.5086
2023-03-29T04:37:38.372Z,63.9595
2023-03-29T04:38:38.367Z,65.3172
2023-03-29T04:39:38.593Z,65.1394
2023-03-29T04:40:38.681Z,63.0231
2023-03-29T04:41:40.040Z,64.9737
2023-03-29T04:42:40.082Z,64.7723
2023-03-29T04:43:41.452Z,62.9649
2023-03-29T04:44:42.981Z,62.1709
2023-03-29T04:45:43.017Z,63.5699
2023-03-29T04:46:43.247Z,61.3652
2023-03-29T04:47:43.281Z,63.0130
2023-03-29T04:48:43.308Z,64.2526
2023-03-29T04:49:43.433Z,65.4517
2023-03-29T04:50:44.674Z,64.2452
2023-03-29T04:51:44.998Z,62.0301
2023-03-29T04:52:46.546Z,58.7323
2023-03-29T04:53:46.669Z,58.0392
2023-03-29T04:54:47.978Z,57.3765
2023-03-29T04:55:48.089Z,55.2628
2023-03-29T04:56:49.431Z,54.3851
2023-03-29T04:57:49.512Z,53.9256
2023-03-29T04:58:50.772Z,55.0163
2023-03-29T04:59:52.113Z,55.1305
2023-03-29T05:00:52.280Z,53.8702
2023-03-29T05:01:52.348Z,54.6680
2023-03-29T05:02:52.650Z,55.1474
2023-03-29T05:03:52.761Z,55.4141
2023-03-29T05:04:53.157Z,54.9399
2023-03-29T05:05:53.240Z,54.8374
2023-03-29T05:06:53.422Z,54.9154
2023-03-29T05:07:54.833Z,55.2791
2023-03-29T05:08:55.226Z,55.8539
2023-03-29T05:09:55.460Z,55.4092
2023-03-29T05:10:55.773Z,54.1621
2023-03-29T05:11:55.983Z,53.4438
2023-03-29T05:12:56.097Z,53.5206
2023-03-29T05:13:56.218Z,53.4626
2023-03-29T05:14:56.463Z,53.8280
2023-03-29T05:15:57.360Z,55.5714
2023-03-29T05:16:57.594Z,57.5607
2023-03-29T05:17:58.186Z,55.9902
2023-03-29T05:18:58.585Z,53.6308
2023-03-29T05:19:59.171Z,54.3494
2023-03-29T05:20:59.878Z,55.1665
2023-03-29T05:22:00.594Z,54.4453
2023-03-29T05:23:00.642Z,54.8047
2023-03-29T05:24:01.941Z,55.9055
2023-03-29T05:25:02.110Z,55.8660
2023-03-29T05:26:03.451Z,56.1000
2023-03-29T05:27:03.610Z,56.9922
2023-03-29T05:28:03.679Z,57.4133
2023-03-29T05:29:03.640Z,57.3266
2023-03-29T05:30:03.777Z,56.3198
2023-03-29T05:31:04.273Z,56.6883
2023-03-29T05:32:04.853Z,55.6576
2023-03-29T05:33:04.885Z,55.2558
2023-03-29T05:34:06.363Z,55.8909
2023-03-29T05:35:06.472Z,54.5173
2023-03-29T05:36:06.823Z,54.1666
2023-03-29T05:37:07.086Z,54.6127
2023-03-29T05:38:07.248Z,59.5490
2023-03-29T05:39:07.323Z,58.8394
2023-03-29T05:40:08.127Z,59.2413
2023-03-29T05:41:09.284Z,56.0452
2023-03-29T05:42:09.579Z,55.9045
2023-03-29T05:43:09.458Z,56.1316
2023-03-29T05:44:09.624Z,55.7191
2023-03-29T05:46:10.862Z,55.0688
2023-03-29T05:47:11.214Z,57.1736
2023-03-29T05:48:11.290Z,57.1174
2023-03-29T05:49:11.546Z,56.3444
2023-03-29T05:50:11.678Z,57.3913
2023-03-29T05:51:12.552Z,56.1968
2023-03-29T05:52:12.717Z,56.2874
2023-03-29T05:53:12.874Z,56.1858
2023-03-29T05:54:14.248Z,57.3219
2023-03-29T05:55:14.381Z,57.9141
2023-03-29T05:56:14.494Z,58.9788
2023-03-29T05:57:14.706Z,58.0742
2023-03-29T05:58:14.870Z,58.1753
2023-03-29T05:59:15.033Z,59.0524
2023-03-29T06:00:15.058Z,58.4502
2023-03-29T06:01:15.810Z,58.9109
2023-03-29T06:02:15.952Z,58.7329
2023-03-29T06:03:22.553Z,58.4543
2023-03-29T06:04:23.155Z,59.7450
2023-03-29T06:05:23.331Z,58.9760
2023-03-29T06:06:24.783Z,58.9870
2023-03-29T06:07:24.939Z,59.7556
2023-03-29T06:08:25.071Z,59.9031
2023-03-29T06:09:25.355Z,59.8385
2023-03-29T06:16:29.731Z,57.7863
2023-03-29T06:17:30.226Z,58.1841
2023-03-29T06:18:30.814Z,59.6064
2023-03-29T06:19:30.843Z,57.6493
2023-03-29T06:20:30.931Z,57.0715
2023-03-29T06:21:31.127Z,55.2340
2023-03-29T06:22:32.498Z,55.6904
2023-03-29T06:23:32.572Z,55.0705
2023-03-29T06:24:33.023Z,54.6664
2023-03-29T06:25:34.114Z,55.6761
2023-03-29T06:26:34.399Z,56.2178
2023-03-29T06:27:34.497Z,57.4676
2023-03-29T06:28:34.540Z,54.7623
2023-03-29T06:29:34.786Z,56.8064
2023-03-29T06:30:35.747Z,56.8040
2023-03-29T06:31:36.531Z,57.6039
2023-03-29T06:32:36.874Z,56.1155
2023-03-29T06:33:37.047Z,58.7983
2023-03-29T06:34:38.576Z,57.7119
2023-03-29T06:35:37.599Z,54.3845
2023-03-29T06:36:37.692Z,56.8300
2023-03-29T06:37:37.910Z,56.0922
2023-03-29T06:38:37.927Z,55.3359
2023-03-29T06:39:38.173Z,55.2223
2023-03-29T06:40:38.203Z,55.8962
2023-03-29T06:41:38.231Z,55.4914
2023-03-29T06:42:38.379Z,54.7177
2023-03-29T06:43:38.393Z,55.3550
2023-03-29T06:44:38.414Z,54.8189
2023-03-29T06:45:38.668Z,54.0573
2023-03-29T06:46:39.019Z,52.8002
2023-03-29T06:47:39.086Z,54.2622
2023-03-29T06:48:39.362Z,53.6681
2023-03-29T06:49:39.387Z,54.3664
2023-03-29T06:50:39.493Z,54.2024
2023-03-29T06:51:39.532Z,53.4003
2023-03-29T06:52:39.731Z,53.2055
2023-03-29T06:53:41.104Z,54.4348
2023-03-29T06:54:41.260Z,56.3692
2023-03-29T06:55:41.661Z,54.4318
2023-03-29T06:56:43.121Z,55.0570
2023-03-29T06:57:43.635Z,55.1724
2023-03-29T06:58:43.681Z,54.4676
2023-03-29T06:59:43.955Z,53.0744
2023-03-29T07:00:44.403Z,53.0555
2023-03-29T07:01:44.854Z,52.5449
2023-03-29T07:02:44.906Z,53.3844
2023-03-29T07:03:46.732Z,53.9514
2023-03-29T07:04:47.149Z,53.0602
2023-03-29T07:05:47.428Z,52.9696
2023-03-29T07:06:47.476Z,53.4634
2023-03-29T07:07:47.764Z,54.6314
2023-03-29T07:08:47.956Z,55.7309
2023-03-29T07:09:48.006Z,55.4768
2023-03-29T07:10:48.121Z,60.1221
2023-03-29T07:11:48.332Z,62.6339
2023-03-29T07:12:48.516Z,64.2894
2023-03-29T07:13:49.043Z,62.5992
2023-03-29T07:14:49.124Z,63.0358
2023-03-29T07:15:49.242Z,66.2107
2023-03-29T07:16:49.326Z,65.9355
2023-03-29T07:17:49.548Z,66.6569
2023-03-29T07:18:49.565Z,67.5643
2023-03-29T07:19:49.636Z,67.6610
2023-03-29T07:20:49.815Z,68.4061
2023-03-29T07:21:49.852Z,67.1231
2023-03-29T07:22:49.862Z,68.3215
2023-03-29T07:23:50.079Z,67.1190
2023-03-29T07:24:50.085Z,66.3734
2023-03-29T07:25:50.114Z,65.5849
2023-03-29T07:27:03.261Z,66.7547
2023-03-29T07:27:50.684Z,67.0918
2023-03-29T07:28:50.730Z,66.3374
2023-03-29T07:29:50.877Z,66.1873
2023-03-29T07:30:51.569Z,66.1310
2023-03-29T07:31:51.778Z,66.9429
2023-03-29T07:32:52.234Z,66.9289
2023-03-29T07:33:53.332Z,64.0286
2023-03-29T07:34:53.446Z,67.5254
2023-03-29T07:35:53.518Z,66.9062
2023-03-29T07:36:53.781Z,67.0311
2023-03-29T07:37:53.781Z,66.8817
2023-03-29T07:38:56.301Z,67.1918
2023-03-29T07:39:55.289Z,66.4504
2023-03-29T07:40:55.504Z,67.0762
2023-03-29T07:41:55.532Z,67.5651
2023-03-29T07:42:55.561Z,66.6465
2023-03-29T07:43:55.718Z,61.0634
2023-03-29T07:44:55.734Z,62.3185
2023-03-29T07:45:55.989Z,65.1097
2023-03-29T07:46:56.170Z,63.8045
2023-03-29T07:47:56.478Z,65.1902
2023-03-29T07:48:56.658Z,64.3582
2023-03-29T07:49:57.000Z,58.5203
2023-03-29T07:50:57.082Z,62.9006
2023-03-29T07:51:57.848Z,66.9257
2023-03-29T07:52:58.126Z,65.5336
2023-03-29T07:53:58.255Z,64.9767
2023-03-29T07:54:58.495Z,65.6382
2023-03-29T07:55:58.590Z,62.4961
2023-03-29T07:56:58.826Z,60.6174
2023-03-29T07:57:59.167Z,60.2793
2023-03-29T07:58:59.321Z,60.8378
2023-03-29T07:59:59.548Z,60.6082
2023-03-29T08:00:59.772Z,59.1329
2023-03-29T08:02:00.918Z,58.2920
2023-03-29T08:03:01.040Z,61.6272
2023-03-29T08:04:01.414Z,62.4442
2023-03-29T08:05:01.983Z,61.2351
2023-03-29T08:06:02.585Z,62.7249
2023-03-29T08:07:02.730Z,62.5973
2023-03-29T08:08:02.830Z,63.0441
2023-03-29T08:09:03.122Z,63.0341
2023-03-29T08:10:03.314Z,60.3026
2023-03-29T08:11:03.687Z,62.2543
2023-03-29T08:12:04.020Z,60.6617
2023-03-29T08:13:04.089Z,58.4066
2023-03-29T08:14:04.248Z,61.7665
2023-03-29T08:15:04.432Z,63.2233
2023-03-29T08:16:04.842Z,64.2224
2023-03-29T08:17:05.130Z,62.2186
2023-03-29T08:18:05.904Z,61.3777
2023-03-29T08:19:06.711Z,63.6958
2023-03-29T08:20:07.307Z,64.4423
2023-03-29T08:21:07.901Z,63.3928
2023-03-29T08:22:07.924Z,64.0426
2023-03-29T08:23:08.234Z,63.1393
2023-03-29T08:24:08.507Z,64.8059
2023-03-29T08:25:09.779Z,64.1129
2023-03-29T08:26:09.924Z,63.3506
2023-03-29T08:27:10.251Z,64.6879
2023-03-29T08:28:10.387Z,65.6066
2023-03-29T08:29:10.485Z,64.1203
2023-03-29T08:30:10.742Z,64.1571
2023-03-29T08:31:11.417Z,64.7270
2023-03-29T08:32:11.654Z,63.0857
2023-03-29T08:33:12.058Z,63.6849
2023-03-29T08:34:12.501Z,61.8714
2023-03-29T08:35:12.715Z,63.7592
2023-03-29T08:36:13.044Z,61.9764
2023-03-29T08:37:13.140Z,61.4912
2023-03-29T08:38:13.333Z,61.6030
2023-03-29T08:39:13.646Z,60.8687
2023-03-29T08:40:13.712Z,61.2586
2023-03-29T08:41:14.553Z,61.0217
2023-03-29T08:42:14.585Z,60.9053
2023-03-29T08:43:14.662Z,61.2954
2023-03-29T08:44:14.938Z,60.1325
2023-03-29T08:45:15.006Z,59.8189
2023-03-29T08:46:15.317Z,59.2038
2023-03-29T08:47:16.202Z,58.5362
2023-03-29T08:48:16.663Z,59.4934
2023-03-29T08:49:16.830Z,60.0149
2023-03-29T08:50:16.952Z,61.2613
2023-03-29T08:51:18.016Z,57.3431
2023-03-29T08:52:18.174Z,60.1263
2023-03-29T08:53:19.409Z,61.5832
2023-03-29T08:54:19.569Z,60.2760
2023-03-29T08:55:19.904Z,57.5910
2023-03-29T08:56:20.051Z,56.8615
2023-03-29T08:57:20.710Z,58.5315
2023-03-29T08:58:20.860Z,55.8498
2023-03-29T08:59:21.318Z,58.3323
2023-03-29T09:00:21.406Z,57.8445
2023-03-29T09:01:21.521Z,57.0453
2023-03-29T09:02:21.979Z,56.7668
2023-03-29T09:03:22.492Z,57.1540
2023-03-29T09:04:22.781Z,55.9191
2023-03-29T09:05:22.947Z,53.7337
2023-03-29T09:06:23.212Z,54.7407
2023-03-29T09:07:26.463Z,54.7142
2023-03-29T09:08:24.041Z,56.0579
2023-03-29T09:09:25.004Z,55.6819
2023-03-29T09:10:25.210Z,54.8721
2023-03-29T09:11:25.512Z,55.1391
2023-03-29T09:12:25.612Z,54.6516
2023-03-29T09:13:25.935Z,55.2870
2023-03-29T09:14:26.091Z,56.2647
2023-03-29T09:15:26.395Z,55.8406
2023-03-29T09:16:26.486Z,55.8103
2023-03-29T09:17:27.128Z,57.3382
2023-03-29T09:18:27.464Z,57.6091
2023-03-29T09:19:27.659Z,56.3895
2023-03-29T09:20:28.010Z,58.0693
2023-03-29T09:21:28.217Z,59.6096
2023-03-29T09:22:28.297Z,60.2715
2023-03-29T09:23:28.542Z,58.3081
2023-03-29T09:24:28.881Z,58.1997
2023-03-29T09:25:29.094Z,57.5359
2023-03-29T09:26:29.490Z,59.0168
2023-03-29T09:27:29.750Z,57.4585
2023-03-29T09:28:29.907Z,57.9054
2023-03-29T09:29:31.238Z,57.5536
2023-03-29T09:30:31.372Z,57.4847
2023-03-29T09:31:31.817Z,56.6775
2023-03-29T09:32:31.961Z,56.7226
2023-03-29T09:33:32.216Z,56.9821
2023-03-29T09:34:32.324Z,58.1692
2023-03-29T09:35:32.463Z,58.6358
2023-03-29T09:36:32.758Z,58.4666
2023-03-29T09:37:32.869Z,58.2801
2023-03-29T09:38:33.221Z,58.5405
2023-03-29T09:39:33.237Z,57.7467
2023-03-29T09:40:33.359Z,60.1005
2023-03-29T09:41:33.603Z,59.5548
2023-03-29T09:42:33.717Z,57.9127
2023-03-29T09:43:33.768Z,59.1063
2023-03-29T09:44:33.976Z,57.1534
2023-03-29T09:45:34.121Z,59.2561
2023-03-29T09:46:34.520Z,57.9283
2023-03-29T09:47:34.658Z,58.9241
2023-03-29T09:48:35.251Z,56.7348
2023-03-29T09:49:35.356Z,56.3993
2023-03-29T09:50:35.918Z,56.6863
2023-03-29T09:51:36.007Z,56.7930
2023-03-29T09:52:36.315Z,56.8131
2023-03-29T09:53:36.485Z,57.2076
2023-03-29T09:54:36.809Z,57.1526
2023-03-29T09:55:37.073Z,56.7568
2023-03-29T09:56:37.338Z,56.2686
2023-03-29T09:57:37.525Z,56.8922
2023-03-29T09:58:37.894Z,58.5800
2023-03-29T09:59:38.017Z,59.0437
2023-03-29T10:00:38.141Z,58.0317
2023-03-29T10:01:38.794Z,58.0909
2023-03-29T10:02:39.302Z,55.8906
2023-03-29T10:03:39.529Z,57.4702
2023-03-29T10:04:39.994Z,58.9968
2023-03-29T10:05:40.122Z,58.3873
2023-03-29T10:06:40.214Z,58.0411
2023-03-29T10:07:40.434Z,57.7116
2023-03-29T10:08:41.838Z,56.7395
2023-03-29T10:09:42.152Z,55.4992
2023-03-29T10:10:42.567Z,57.1716
2023-03-29T10:11:42.893Z,56.4611
2023-03-29T10:12:43.265Z,56.2113
2023-03-29T10:13:43.366Z,56.0460
2023-03-29T10:14:43.532Z,56.4757
2023-03-29T10:15:44.550Z,54.9247
2023-03-29T10:16:44.775Z,54.3829
2023-03-29T10:17:45.143Z,54.8455
2023-03-29T10:18:45.370Z,57.5341
2023-03-29T10:19:45.650Z,55.9498
2023-03-29T10:20:45.854Z,56.1363
2023-03-29T10:21:46.156Z,55.9520
2023-03-29T10:22:46.300Z,56.5785
2023-03-29T10:23:46.763Z,54.1644
2023-03-29T10:24:46.862Z,54.5906
2023-03-29T10:25:47.135Z,55.2832
2023-03-29T10:26:47.320Z,56.6943
2023-03-29T10:27:47.827Z,56.4092
2023-03-29T10:28:48.049Z,55.9626
2023-03-29T10:29:48.413Z,54.0801
2023-03-29T10:30:48.690Z,53.7423
2023-03-29T10:31:49.257Z,54.4527
2023-03-29T10:32:49.804Z,53.3242
2023-03-29T10:33:50.038Z,54.8934
2023-03-29T10:34:50.515Z,53.6548
2023-03-29T10:35:50.738Z,53.6817
2023-03-29T10:36:51.103Z,53.5106
2023-03-29T10:37:51.581Z,53.5847
2023-03-29T10:38:52.004Z,51.4763
2023-03-29T10:39:52.292Z,49.8477
2023-03-29T10:40:52.723Z,51.5242
2023-03-29T10:41:53.114Z,52.1299
2023-03-29T10:42:53.226Z,49.5962
2023-03-29T10:43:54.376Z,49.0057
2023-03-29T10:44:54.835Z,51.7571
2023-03-29T10:45:55.522Z,51.9232
2023-03-29T10:46:56.782Z,52.9040
2023-03-29T10:47:57.117Z,52.8291
2023-03-29T10:48:57.520Z,52.4316
2023-03-29T10:49:58.652Z,53.7619
2023-03-29T10:50:59.032Z,49.7580
2023-03-29T10:51:59.219Z,45.7472
2023-03-29T10:52:59.806Z,48.4337
2023-03-29T10:54:00.048Z,49.6172
2023-03-29T10:55:00.563Z,51.0248
2023-03-29T10:56:00.757Z,55.5875
2023-03-29T10:57:01.139Z,53.5826
2023-03-29T10:58:01.588Z,53.8458
2023-03-29T10:59:01.811Z,56.3642
2023-03-29T11:00:02.265Z,54.6553
2023-03-29T11:01:02.778Z,55.8021
2023-03-29T11:02:03.539Z,55.8076
2023-03-29T11:03:04.236Z,58.2227
2023-03-29T11:04:05.488Z,57.5168
2023-03-29T11:05:06.067Z,58.7888
2023-03-29T11:06:06.441Z,56.1896
2023-03-29T11:07:06.858Z,56.4504
2023-03-29T11:08:07.086Z,54.6263
2023-03-29T11:09:07.440Z,53.1159
2023-03-29T11:10:07.870Z,54.2600
2023-03-29T11:11:08.348Z,52.0271
2023-03-29T11:12:15.583Z,51.2669
2023-03-29T11:13:09.668Z,51.2001
2023-03-29T11:14:10.476Z,48.8889
2023-03-29T11:15:10.662Z,47.9595
2023-03-29T11:16:11.089Z,48.1948
2023-03-29T11:17:11.330Z,48.6456
2023-03-29T11:18:11.722Z,46.9833
2023-03-29T11:19:12.106Z,47.9834
2023-03-29T11:20:12.530Z,47.0766
2023-03-29T11:21:12.928Z,48.2628
2023-03-29T11:22:13.101Z,46.6963
2023-03-29T11:23:13.506Z,45.2375
2023-03-29T11:24:13.708Z,47.3474
2023-03-29T11:25:14.124Z,46.7920
2023-03-29T11:26:14.490Z,47.1817
2023-03-29T11:27:14.704Z,46.1842
2023-03-29T11:28:15.133Z,43.9916
2023-03-29T11:29:15.289Z,41.3206
2023-03-29T11:30:15.950Z,42.2926
2023-03-29T11:31:16.793Z,44.8052
2023-03-29T11:32:17.112Z,40.7410
2023-03-29T11:33:18.039Z,40.3205
2023-03-29T11:34:18.301Z,40.8223
2023-03-29T11:35:18.678Z,40.9795
2023-03-29T11:36:19.200Z,40.6162
2023-03-29T11:37:19.416Z,38.0261
2023-03-29T11:38:19.940Z,39.1414
2023-03-29T11:39:20.404Z,40.8272
2023-03-29T11:40:20.691Z,41.3929
2023-03-29T11:41:21.109Z,38.9596
2023-03-29T11:42:21.317Z,39.7980
2023-03-29T11:43:21.629Z,38.8409
2023-03-29T11:44:22.008Z,38.1506
2023-03-29T11:45:22.255Z,37.9695
2023-03-29T11:46:22.847Z,39.1358
2023-03-29T11:47:23.511Z,41.6801
2023-03-29T11:48:24.112Z,43.6460
2023-03-29T11:49:24.546Z,42.2624
2023-03-29T11:50:25.975Z,43.5978
2023-03-29T11:51:26.154Z,41.3324
2023-03-29T11:52:26.509Z,41.8510
2023-03-29T11:53:26.769Z,42.0876
2023-03-29T11:54:27.164Z,43.4954
2023-03-29T11:55:27.979Z,43.2272
2023-03-29T11:56:28.253Z,44.3490
2023-03-29T11:57:28.809Z,45.8803
2023-03-29T11:58:29.373Z,44.3871
2023-03-29T11:59:29.667Z,45.8469
2023-03-29T12:00:30.039Z,45.3868
2023-03-29T12:01:30.484Z,45.5900
2023-03-29T12:02:31.249Z,48.3062
2023-03-29T12:03:31.911Z,47.5265
2023-03-29T12:04:33.120Z,47.2696
2023-03-29T12:05:33.531Z,47.8579
2023-03-29T12:06:33.786Z,46.5553
2023-03-29T12:07:34.205Z,46.9537
2023-03-29T12:08:34.539Z,46.6248
2023-03-29T12:09:34.731Z,47.5292
2023-03-29T12:10:35.177Z,48.7117
2023-03-29T12:11:35.352Z,50.1876
2023-03-29T12:12:36.280Z,48.6320
2023-03-29T12:13:36.669Z,49.2032
2023-03-29T12:14:37.348Z,48.8100
2023-03-29T12:15:37.791Z,48.8053
2023-03-29T12:16:38.104Z,49.9137
2023-03-29T12:17:38.739Z,50.1507
2023-03-29T12:18:39.691Z,51.9635
2023-03-29T12:19:42.658Z,49.9856
2023-03-29T12:20:41.183Z,49.2341
2023-03-29T12:21:42.065Z,50.7556
2023-03-29T12:22:42.531Z,48.5845
2023-03-29T12:23:42.711Z,50.7771
2023-03-29T12:24:43.064Z,50.5764
2023-03-29T12:25:43.669Z,50.7389
2023-03-29T12:26:43.927Z,53.2724
2023-03-29T12:27:44.286Z,52.6860
2023-03-29T12:28:44.651Z,53.0053
2023-03-29T12:29:44.954Z,53.2818
2023-03-29T12:30:45.358Z,52.9755
2023-03-29T12:31:45.868Z,53.5489
2023-03-29T12:32:46.473Z,53.3428
2023-03-29T12:33:46.883Z,50.0122
2023-03-29T12:34:47.226Z,50.3373
2023-03-29T12:35:47.535Z,49.8526
2023-03-29T12:36:47.902Z,50.8374
2023-03-29T12:37:48.140Z,50.8297
2023-03-29T12:38:48.486Z,51.3908
2023-03-29T12:39:48.898Z,52.3257
2023-03-29T12:40:49.260Z,52.1936
2023-03-29T12:41:49.584Z,50.9425
2023-03-29T12:42:49.858Z,48.7549
2023-03-29T12:43:50.317Z,49.4582
2023-03-29T12:44:50.866Z,51.6998
2023-03-29T12:45:51.187Z,50.3987
2023-03-29T12:46:52.293Z,51.4778
2023-03-29T12:47:52.763Z,50.3556
2023-03-29T12:48:53.207Z,47.4039
2023-03-29T12:49:53.825Z,46.5545
2023-03-29T12:50:54.051Z,43.5542
2023-03-29T12:51:54.454Z,47.9364
2023-03-29T12:52:54.923Z,48.8716
2023-03-29T12:53:55.115Z,48.3845
2023-03-29T12:54:55.465Z,48.4279
2023-03-29T12:55:55.921Z,50.0877
2023-03-29T12:56:56.685Z,50.8988
2023-03-29T12:57:57.024Z,50.3548
2023-03-29T12:58:57.241Z,54.0552
2023-03-29T12:59:57.662Z,53.1740
2023-03-29T13:00:58.210Z,52.2734
2023-03-29T13:01:58.917Z,53.4368